Time;durP1;ratioP1;P1;durP2;ratioP2;P2;SDS_P1;SDS_P2;PMS_P1;PMS_P2;Temp;Humidity;BMP_temperature;BMP_pressure;BME280_temperature;BME280_humidity;BME280_pressure;Samples;Min_cycle;Max_cycle;Signal;HPM_P1;HPM_P2
2023/05/01 00:00:21;;;;;;;58.10;37.92;;;6.60;99.90;;;;;;2090783;28;20029;-71
2023/05/01 00:01:26;;;;;;;57.80;36.38;;;6.60;99.90;;;;;;2086156;28;20029;-71
2023/05/01 00:02:27;;;;;;;50.75;34.72;;;6.60;99.90;;;;;;2093600;28;20300;-71
2023/05/01 00:03:27;;;;;;;51.75;35.67;;;6.60;99.90;;;;;;2086806;28;20036;-71
2023/05/01 00:04:28;;;;;;;51.08;34.17;;;6.60;99.90;;;;;;2091462;28;20127;-71
2023/05/01 00:05:28;;;;;;;47.60;32.47;;;6.60;99.90;;;;;;2091936;28;20608;-71
2023/05/01 00:06:29;;;;;;;47.58;32.67;;;6.50;99.90;;;;;;2087940;28;20585;-71
2023/05/01 00:07:30;;;;;;;48.47;33.10;;;6.50;99.90;;;;;;2088314;28;20109;-71
2023/05/01 00:08:31;;;;;;;48.55;34.22;;;6.50;99.90;;;;;;2083205;28;20521;-71
2023/05/01 00:09:32;;;;;;;46.70;32.75;;;6.50;99.90;;;;;;2093446;28;20103;-72
2023/05/01 00:10:35;;;;;;;50.58;34.33;;;6.50;99.90;;;;;;2087396;28;20036;-71
2023/05/01 00:11:36;;;;;;;51.50;34.50;;;6.50;99.90;;;;;;2086157;28;20032;-71
2023/05/01 00:12:36;;;;;;;49.95;34.47;;;6.50;99.90;;;;;;2085330;28;20131;-71
2023/05/01 00:13:37;;;;;;;50.47;34.05;;;6.50;99.90;;;;;;2088309;28;20027;-71
2023/05/01 00:14:38;;;;;;;51.47;34.38;;;6.40;99.90;;;;;;2091274;28;20028;-71
2023/05/01 00:15:41;;;;;;;48.22;33.40;;;6.50;99.90;;;;;;2093375;28;20097;-71
2023/05/01 00:16:41;;;;;;;48.00;33.38;;;6.50;99.90;;;;;;2084939;28;20035;-72
2023/05/01 00:17:42;;;;;;;47.95;32.30;;;6.50;99.90;;;;;;2090844;28;20136;-71
2023/05/01 00:18:43;;;;;;;42.95;30.98;;;6.40;99.90;;;;;;2085725;28;20035;-71
2023/05/01 00:19:43;;;;;;;43.60;30.83;;;6.50;99.90;;;;;;2092893;28;20372;-71
2023/05/01 00:20:44;;;;;;;44.67;30.33;;;6.50;99.90;;;;;;2085738;28;20593;-71
2023/05/01 00:21:46;;;;;;;43.75;30.65;;;6.40;99.90;;;;;;2090747;28;20142;-71
2023/05/01 00:22:47;;;;;;;43.53;28.95;;;6.40;99.90;;;;;;2091176;28;20016;-72
2023/05/01 00:23:47;;;;;;;40.05;27.73;;;6.40;99.90;;;;;;2090615;28;20407;-71
2023/05/01 00:24:49;;;;;;;40.65;27.15;;;6.40;99.90;;;;;;2092392;28;20395;-71
2023/05/01 00:25:49;;;;;;;37.03;26.92;;;6.40;99.90;;;;;;2083461;28;20028;-71
2023/05/01 00:26:50;;;;;;;43.15;27.63;;;6.40;99.90;;;;;;2090492;28;20017;-71
2023/05/01 00:27:50;;;;;;;38.10;26.65;;;6.40;99.90;;;;;;2086022;28;20511;-72
2023/05/01 00:28:51;;;;;;;38.47;26.63;;;6.40;99.90;;;;;;2093490;28;20041;-72
2023/05/01 00:29:52;;;;;;;37.97;26.00;;;6.40;99.90;;;;;;2087493;28;20033;-71
2023/05/01 00:30:52;;;;;;;38.30;26.52;;;6.40;99.90;;;;;;2085657;28;20029;-71
2023/05/01 00:31:54;;;;;;;39.97;27.27;;;6.40;99.90;;;;;;2091200;28;20017;-71
2023/05/01 00:32:54;;;;;;;38.00;27.25;;;6.40;99.90;;;;;;2090579;28;20070;-71
2023/05/01 00:33:55;;;;;;;38.00;26.20;;;6.40;99.90;;;;;;2100750;28;20028;-71
2023/05/01 00:34:56;;;;;;;35.67;25.88;;;6.30;99.90;;;;;;2090439;28;20098;-71
2023/05/01 00:35:58;;;;;;;37.30;26.08;;;6.30;99.90;;;;;;2090532;28;20089;-71
2023/05/01 00:36:58;;;;;;;36.30;26.17;;;6.30;99.90;;;;;;2098840;28;20077;-71
2023/05/01 00:37:59;;;;;;;37.08;25.60;;;6.30;99.90;;;;;;2076143;28;20192;-71
2023/05/01 00:39:00;;;;;;;35.38;25.33;;;6.30;99.90;;;;;;2077437;28;20040;-71
2023/05/01 00:40:00;;;;;;;36.47;26.02;;;6.30;99.90;;;;;;2082164;28;20044;-71
2023/05/01 00:41:01;;;;;;;38.47;26.75;;;6.30;99.90;;;;;;2090382;28;20503;-71
2023/05/01 00:42:02;;;;;;;38.38;26.33;;;6.30;99.90;;;;;;2090503;28;20506;-71
2023/05/01 00:43:03;;;;;;;35.08;25.88;;;6.30;99.90;;;;;;2083913;28;20056;-71
2023/05/01 00:44:03;;;;;;;39.85;26.27;;;6.20;99.90;;;;;;2077328;28;20125;-72
2023/05/01 00:45:07;;;;;;;42.00;27.13;;;6.20;99.90;;;;;;2082160;28;20033;-71
2023/05/01 00:46:09;;;;;;;39.25;27.42;;;6.20;99.90;;;;;;2082589;28;20128;-72
2023/05/01 00:47:10;;;;;;;40.05;27.95;;;6.20;99.90;;;;;;2092685;28;20156;-72
2023/05/01 00:48:11;;;;;;;40.53;28.80;;;6.20;99.90;;;;;;2079603;28;20232;-72
2023/05/01 00:49:12;;;;;;;40.92;29.55;;;6.20;99.90;;;;;;2082182;28;20381;-71
2023/05/01 00:50:13;;;;;;;44.30;31.02;;;6.10;99.90;;;;;;2090383;28;20038;-71
2023/05/01 00:51:14;;;;;;;42.38;31.10;;;6.10;99.90;;;;;;2092403;28;20495;-71
2023/05/01 00:52:15;;;;;;;43.17;31.48;;;6.10;99.90;;;;;;2093920;28;20456;-71
2023/05/01 00:53:16;;;;;;;44.63;31.13;;;6.10;99.90;;;;;;2107344;28;20028;-72
2023/05/01 00:54:16;;;;;;;47.00;31.88;;;6.10;99.90;;;;;;2090342;28;20381;-71
2023/05/01 00:55:17;;;;;;;48.55;33.05;;;6.10;99.90;;;;;;2092545;28;20475;-71
2023/05/01 00:56:18;;;;;;;48.45;33.00;;;6.10;99.90;;;;;;2092950;28;20063;-72
2023/05/01 00:57:20;;;;;;;49.35;33.78;;;6.10;99.90;;;;;;2090325;28;20451;-72
2023/05/01 00:58:21;;;;;;;48.95;35.08;;;6.00;99.90;;;;;;2085784;28;20692;-72
2023/05/01 00:59:22;;;;;;;52.78;35.38;;;6.00;99.90;;;;;;2090274;28;20408;-73
2023/05/01 01:00:23;;;;;;;51.85;35.75;;;6.00;99.90;;;;;;2082034;28;20307;-71
2023/05/01 01:01:24;;;;;;;54.15;36.55;;;5.90;99.90;;;;;;2080089;28;20052;-72
2023/05/01 01:02:26;;;;;;;52.30;36.65;;;5.90;99.90;;;;;;2081162;28;20060;-71
2023/05/01 01:03:26;;;;;;;58.40;38.13;;;5.90;99.90;;;;;;2078030;28;20056;-71
2023/05/01 01:04:30;;;;;;;57.42;38.30;;;5.90;99.90;;;;;;2090310;28;20583;-71
2023/05/01 01:05:37;;;;;;;54.80;36.88;;;5.90;99.90;;;;;;2092260;28;20032;-71
2023/05/01 01:06:57;;;;;;;53.63;37.65;;;5.80;99.90;;;;;;2084385;28;20058;-71
2023/05/01 01:08:16;;;;;;;54.90;37.42;;;5.80;99.90;;;;;;2096615;28;20525;-71
2023/05/01 01:09:38;;;;;;;59.10;38.47;;;5.80;99.90;;;;;;2084438;28;20037;-71
2023/05/01 01:10:42;;;;;;;55.08;37.38;;;5.80;99.90;;;;;;2092462;28;20020;-71
2023/05/01 01:12:00;;;;;;;54.90;36.60;;;5.80;99.90;;;;;;2082125;28;20032;-71
2023/05/01 01:13:29;;;;;;;58.78;38.35;;;5.70;99.90;;;;;;2078432;28;20017;-71
2023/05/01 01:14:39;;;;;;;60.15;38.75;;;5.80;99.90;;;;;;2065060;28;20069;-71
2023/05/01 01:15:52;;;;;;;58.63;39.00;;;5.80;99.90;;;;;;2084795;28;20464;-71
2023/05/01 01:17:03;;;;;;;56.72;38.58;;;5.70;99.90;;;;;;2079393;28;20570;-72
2023/05/01 01:18:06;;;;;;;60.03;39.72;;;5.70;99.90;;;;;;2086117;28;20061;-72
2023/05/01 01:19:34;;;;;;;59.05;40.17;;;5.70;99.90;;;;;;2090780;28;20078;-68
2023/05/01 01:20:54;;;;;;;59.85;39.50;;;5.70;99.90;;;;;;2084028;28;20028;-72
2023/05/01 01:21:59;;;;;;;60.28;39.45;;;5.60;99.90;;;;;;2083714;28;20028;-69
2023/05/01 01:23:12;;;;;;;57.17;39.13;;;5.60;99.90;;;;;;2092075;28;20448;-74
2023/05/01 01:24:31;;;;;;;59.83;40.42;;;5.60;99.90;;;;;;2083373;28;20021;-73
2023/05/01 01:25:49;;;;;;;57.03;39.47;;;5.60;99.90;;;;;;2085705;28;20047;-73
2023/05/01 01:27:12;;;;;;;60.35;40.10;;;5.60;99.90;;;;;;2075756;28;20598;-74
2023/05/01 01:28:31;;;;;;;63.70;41.85;;;5.60;99.90;;;;;;2078210;28;20117;-73
2023/05/01 01:30:06;;;;;;;63.85;41.25;;;5.50;99.90;;;;;;2084442;28;20977;-73
2023/05/01 01:31:21;;;;;;;65.72;43.35;;;5.50;99.90;;;;;;2087195;28;20598;-73
2023/05/01 01:33:00;;;;;;;66.28;43.00;;;5.50;99.90;;;;;;2093913;28;20036;-73
2023/05/01 01:34:14;;;;;;;65.45;42.33;;;5.50;99.90;;;;;;2093385;28;20107;-73
2023/05/01 01:35:25;;;;;;;66.65;42.22;;;5.50;99.90;;;;;;2089991;28;20353;-73
2023/05/01 01:36:42;;;;;;;66.75;44.03;;;5.50;99.90;;;;;;2089989;28;20094;-73
2023/05/01 01:37:51;;;;;;;66.95;44.13;;;5.50;99.90;;;;;;2091876;28;20395;-73
2023/05/01 01:39:01;;;;;;;66.47;43.92;;;5.40;99.90;;;;;;2088354;28;20091;-73
2023/05/01 01:40:11;;;;;;;66.95;43.88;;;5.40;99.90;;;;;;2084708;28;20310;-73
2023/05/01 01:41:27;;;;;;;66.05;42.75;;;5.40;99.90;;;;;;2091062;28;20040;-73
2023/05/01 01:42:37;;;;;;;65.72;44.45;;;5.40;99.90;;;;;;2089862;28;20028;-75
2023/05/01 01:43:42;;;;;;;68.00;44.00;;;5.40;99.90;;;;;;2085051;28;20087;-72
2023/05/01 01:44:55;;;;;;;60.75;42.15;;;5.40;99.90;;;;;;2085212;28;20026;-72
2023/05/01 01:46:04;;;;;;;68.45;43.60;;;5.40;99.90;;;;;;2085117;28;20082;-72
2023/05/01 01:47:10;;;;;;;68.20;44.20;;;5.30;99.90;;;;;;2085148;28;20119;-73
2023/05/01 01:48:18;;;;;;;63.75;43.20;;;5.40;99.90;;;;;;2077982;28;20262;-73
2023/05/01 01:49:23;;;;;;;65.03;43.70;;;5.30;99.90;;;;;;2082358;28;20029;-73
2023/05/01 01:50:25;;;;;;;68.25;44.05;;;5.30;99.90;;;;;;2082336;28;20083;-73
2023/05/01 01:51:28;;;;;;;68.85;45.17;;;5.30;99.90;;;;;;2083755;28;20492;-73
2023/05/01 01:52:31;;;;;;;67.35;44.35;;;5.30;99.90;;;;;;2087202;28;20043;-73
2023/05/01 01:53:33;;;;;;;66.65;44.17;;;5.30;99.90;;;;;;2081541;28;20033;-73
2023/05/01 01:54:42;;;;;;;65.53;44.80;;;5.20;99.90;;;;;;2081822;28;20021;-73
2023/05/01 01:55:43;;;;;;;67.32;44.33;;;5.20;99.90;;;;;;2082653;28;20080;-73
2023/05/01 01:56:46;;;;;;;68.80;45.80;;;5.20;99.90;;;;;;2089760;28;20021;-73
2023/05/01 01:57:48;;;;;;;67.97;46.25;;;5.20;99.90;;;;;;2098075;28;20023;-74
2023/05/01 01:58:51;;;;;;;71.75;46.72;;;5.20;99.90;;;;;;2093124;28;20024;-73
2023/05/01 01:59:52;;;;;;;71.85;48.08;;;5.20;99.90;;;;;;2091633;28;20522;-73
2023/05/01 02:00:55;;;;;;;71.97;48.35;;;5.20;99.90;;;;;;2093328;28;20497;-74
2023/05/01 02:01:57;;;;;;;73.78;47.97;;;5.10;99.90;;;;;;2081839;28;20063;-74
2023/05/01 02:02:59;;;;;;;73.20;48.95;;;5.20;99.90;;;;;;2098283;28;20434;-73
2023/05/01 02:04:02;;;;;;;72.32;48.92;;;5.10;99.90;;;;;;2099861;28;20028;-74
2023/05/01 02:05:05;;;;;;;76.38;49.55;;;5.10;99.90;;;;;;2089907;28;20257;-74
2023/05/01 02:06:07;;;;;;;77.35;50.83;;;5.10;99.90;;;;;;2088451;28;20028;-73
2023/05/01 02:07:11;;;;;;;75.88;50.05;;;5.10;99.90;;;;;;2081415;28;20039;-73
2023/05/01 02:08:13;;;;;;;76.10;49.22;;;5.10;99.90;;;;;;2081473;28;20112;-74
2023/05/01 02:09:17;;;;;;;79.95;50.38;;;5.10;99.90;;;;;;2087179;28;20032;-74
2023/05/01 02:10:21;;;;;;;76.00;51.53;;;5.00;99.90;;;;;;2081796;28;20036;-74
2023/05/01 02:11:23;;;;;;;78.40;52.53;;;5.00;99.90;;;;;;2081681;28;20466;-73
2023/05/01 02:12:25;;;;;;;78.60;52.40;;;5.00;99.90;;;;;;2091816;28;20090;-74
2023/05/01 02:13:30;;;;;;;74.07;51.65;;;5.00;99.90;;;;;;2093592;28;20031;-74
2023/05/01 02:14:32;;;;;;;81.78;53.75;;;5.00;99.90;;;;;;2097807;28;20045;-74
2023/05/01 02:15:33;;;;;;;80.25;53.13;;;5.00;99.90;;;;;;2081428;28;20029;-74
2023/05/01 02:16:35;;;;;;;81.45;53.17;;;5.00;99.90;;;;;;2079809;28;20556;-73
2023/05/01 02:17:39;;;;;;;79.63;52.58;;;4.90;99.90;;;;;;2083676;28;20118;-73
2023/05/01 02:18:40;;;;;;;84.90;54.13;;;5.00;99.90;;;;;;2079047;28;20024;-73
2023/05/01 02:19:43;;;;;;;78.50;52.72;;;4.90;99.90;;;;;;2097086;28;20495;-73
2023/05/01 02:20:45;;;;;;;80.63;52.83;;;4.90;99.90;;;;;;2088158;28;20478;-74
2023/05/01 02:21:48;;;;;;;78.75;53.45;;;4.90;99.90;;;;;;2073741;28;20025;-73
2023/05/01 02:22:52;;;;;;;77.88;52.97;;;4.90;99.90;;;;;;2100525;28;20057;-73
2023/05/01 02:23:53;;;;;;;78.35;53.00;;;4.90;99.90;;;;;;2093434;28;20055;-73
2023/05/01 02:24:56;;;;;;;79.53;53.42;;;4.90;99.90;;;;;;2085787;28;20028;-73
2023/05/01 02:26:01;;;;;;;76.68;52.42;;;4.90;99.90;;;;;;2085666;28;20524;-73
2023/05/01 02:27:10;;;;;;;84.78;55.00;;;4.90;99.90;;;;;;2083032;28;20075;-73
2023/05/01 02:28:18;;;;;;;82.75;55.78;;;4.90;99.90;;;;;;2077970;28;20638;-73
2023/05/01 02:29:19;;;;;;;81.10;54.00;;;4.90;99.90;;;;;;2078510;28;20071;-74
2023/05/01 02:30:20;;;;;;;82.75;54.42;;;4.90;99.90;;;;;;2090506;28;20094;-73
2023/05/01 02:31:21;;;;;;;84.68;55.40;;;4.90;99.90;;;;;;2087459;28;20526;-74
2023/05/01 02:32:22;;;;;;;83.55;55.47;;;4.90;99.90;;;;;;2086773;28;20606;-74
2023/05/01 02:33:24;;;;;;;78.80;53.92;;;4.90;99.90;;;;;;2088133;28;20111;-73
2023/05/01 02:34:25;;;;;;;79.85;54.72;;;4.90;99.90;;;;;;2081428;28;20040;-73
2023/05/01 02:35:26;;;;;;;84.70;55.58;;;4.80;99.90;;;;;;2090002;28;20111;-73
2023/05/01 02:36:27;;;;;;;84.00;55.08;;;4.90;99.90;;;;;;2089832;28;20028;-72
2023/05/01 02:37:29;;;;;;;82.57;54.53;;;4.80;99.90;;;;;;2092077;28;20705;-73
2023/05/01 02:38:31;;;;;;;86.93;56.03;;;4.90;99.90;;;;;;2077204;28;20826;-73
2023/05/01 02:39:33;;;;;;;84.65;55.72;;;4.80;99.90;;;;;;2089739;28;20597;-72
2023/05/01 02:40:37;;;;;;;86.75;56.63;;;4.80;99.90;;;;;;2090669;28;20024;-73
2023/05/01 02:41:39;;;;;;;81.68;55.97;;;4.80;99.90;;;;;;2087259;28;20147;-73
2023/05/01 02:42:44;;;;;;;87.63;56.72;;;4.80;99.90;;;;;;2081788;28;20029;-73
2023/05/01 02:43:50;;;;;;;87.45;57.35;;;4.80;99.90;;;;;;2074006;28;20037;-73
2023/05/01 02:44:56;;;;;;;86.78;57.85;;;4.80;99.90;;;;;;2080730;28;20029;-73
2023/05/01 02:45:58;;;;;;;88.03;57.95;;;4.80;99.90;;;;;;2077419;28;20889;-73
2023/05/01 02:47:00;;;;;;;89.60;58.03;;;4.80;99.90;;;;;;2084369;28;20088;-73
2023/05/01 02:48:04;;;;;;;87.85;57.65;;;4.80;99.90;;;;;;2086979;28;20037;-73
2023/05/01 02:49:05;;;;;;;87.97;59.15;;;4.70;99.90;;;;;;2088375;28;20044;-73
2023/05/01 02:50:07;;;;;;;90.63;57.83;;;4.70;99.90;;;;;;2084875;28;20033;-73
2023/05/01 02:51:08;;;;;;;86.45;58.80;;;4.70;99.90;;;;;;2087493;28;20035;-73
2023/05/01 02:52:11;;;;;;;87.57;58.67;;;4.70;99.90;;;;;;2092861;28;20024;-73
2023/05/01 02:53:14;;;;;;;87.78;58.35;;;4.70;99.90;;;;;;2090782;28;20665;-73
2023/05/01 02:54:22;;;;;;;87.55;59.45;;;4.70;99.90;;;;;;2069990;28;20053;-72
2023/05/01 02:55:23;;;;;;;91.50;58.97;;;4.70;99.90;;;;;;2069480;28;20029;-73
2023/05/01 02:56:28;;;;;;;88.95;58.35;;;4.70;99.90;;;;;;2081453;28;20079;-72
2023/05/01 02:57:28;;;;;;;89.35;59.60;;;4.60;99.90;;;;;;2077375;28;20033;-73
2023/05/01 02:58:31;;;;;;;90.53;59.47;;;4.70;99.90;;;;;;2091694;28;20060;-73
2023/05/01 02:59:32;;;;;;;86.43;58.58;;;4.60;99.90;;;;;;2084899;28;20414;-74
2023/05/01 03:00:34;;;;;;;92.80;59.63;;;4.60;99.90;;;;;;2089486;28;20120;-73
2023/05/01 03:01:34;;;;;;;87.43;59.05;;;4.60;99.90;;;;;;2078958;28;20403;-73
2023/05/01 03:02:35;;;;;;;88.18;58.60;;;4.60;99.90;;;;;;2083362;28;20044;-73
2023/05/01 03:03:36;;;;;;;93.15;60.10;;;4.60;99.90;;;;;;2085189;28;20121;-73
2023/05/01 03:04:36;;;;;;;93.45;60.83;;;4.60;99.90;;;;;;2090092;28;20029;-74
2023/05/01 03:05:38;;;;;;;89.88;59.40;;;4.60;99.90;;;;;;2087373;28;20074;-73
2023/05/01 03:06:38;;;;;;;89.15;59.35;;;4.60;99.90;;;;;;2087014;28;20164;-73
2023/05/01 03:07:39;;;;;;;90.85;60.10;;;4.60;99.90;;;;;;2091067;28;20677;-73
2023/05/01 03:08:41;;;;;;;90.00;58.83;;;4.50;99.90;;;;;;2086550;28;20041;-73
2023/05/01 03:09:42;;;;;;;91.75;59.60;;;4.50;99.90;;;;;;2089475;28;20060;-73
2023/05/01 03:10:43;;;;;;;88.72;59.03;;;4.60;99.90;;;;;;2084526;28;20033;-73
2023/05/01 03:11:43;;;;;;;85.68;57.55;;;4.50;99.90;;;;;;2083284;28;20031;-73
2023/05/01 03:12:44;;;;;;;86.88;58.50;;;4.50;99.90;;;;;;2089629;28;20426;-73
2023/05/01 03:13:46;;;;;;;87.40;59.00;;;4.50;99.90;;;;;;2085743;28;20500;-73
2023/05/01 03:14:46;;;;;;;83.05;57.60;;;4.50;99.90;;;;;;2085731;28;20123;-73
2023/05/01 03:15:47;;;;;;;88.30;58.40;;;4.50;99.90;;;;;;2090418;28;20243;-72
2023/05/01 03:16:48;;;;;;;86.63;58.05;;;4.50;99.90;;;;;;2078854;28;20420;-72
2023/05/01 03:17:48;;;;;;;88.47;57.58;;;4.50;99.90;;;;;;2080833;28;20467;-72
2023/05/01 03:18:49;;;;;;;85.72;58.58;;;4.50;99.90;;;;;;2089440;28;20086;-73
2023/05/01 03:19:51;;;;;;;91.43;59.08;;;4.50;99.90;;;;;;2089544;28;20425;-73
2023/05/01 03:20:58;;;;;;;90.28;57.60;;;4.50;99.90;;;;;;2092392;28;20397;-73
2023/05/01 03:22:00;;;;;;;86.03;57.95;;;4.50;99.90;;;;;;2087235;28;20048;-73
2023/05/01 03:23:01;;;;;;;88.28;58.97;;;4.50;99.90;;;;;;2089377;28;20042;-73
2023/05/01 03:24:02;;;;;;;82.88;56.83;;;4.50;99.90;;;;;;2077022;28;20116;-73
2023/05/01 03:25:05;;;;;;;86.13;57.45;;;4.50;99.90;;;;;;2076927;28;20173;-73
2023/05/01 03:26:06;;;;;;;90.15;59.47;;;4.40;99.90;;;;;;2092939;28;20435;-73
2023/05/01 03:27:07;;;;;;;87.47;57.55;;;4.50;99.90;;;;;;2092513;28;20503;-73
2023/05/01 03:28:09;;;;;;;82.03;56.13;;;4.40;99.90;;;;;;2091209;28;20097;-73
2023/05/01 03:29:12;;;;;;;87.85;57.17;;;4.40;99.90;;;;;;2089625;28;20094;-72
2023/05/01 03:30:12;;;;;;;86.30;57.42;;;4.40;99.90;;;;;;2076596;28;20075;-72
2023/05/01 03:31:15;;;;;;;89.50;57.17;;;4.40;99.90;;;;;;2081497;28;20122;-72
2023/05/01 03:32:16;;;;;;;84.18;55.67;;;4.40;99.90;;;;;;2083429;28;20032;-73
2023/05/01 03:33:18;;;;;;;80.80;55.40;;;4.40;99.90;;;;;;2075529;28;20029;-75
2023/05/01 03:34:19;;;;;;;83.88;57.10;;;4.40;99.90;;;;;;2077535;28;20029;-73
2023/05/01 03:35:19;;;;;;;82.80;55.83;;;4.40;99.90;;;;;;2076084;28;20033;-73
2023/05/01 03:36:21;;;;;;;83.18;56.72;;;4.40;99.90;;;;;;2087037;28;20101;-73
2023/05/01 03:37:22;;;;;;;87.28;56.15;;;4.40;99.90;;;;;;2079674;28;20351;-72
2023/05/01 03:38:25;;;;;;;85.00;55.90;;;4.40;99.90;;;;;;2080349;28;20048;-73
2023/05/01 03:39:45;;;;;;;82.63;55.80;;;4.30;99.90;;;;;;2086246;28;20033;-73
2023/05/01 03:41:21;;;;;;;84.53;55.90;;;4.30;99.90;;;;;;2087612;28;20055;-73
2023/05/01 03:42:21;;;;;;;82.05;55.75;;;4.30;99.90;;;;;;2087756;28;20091;-73
2023/05/01 03:43:24;;;;;;;82.85;54.88;;;4.40;99.90;;;;;;2087824;28;20027;-72
2023/05/01 03:44:26;;;;;;;82.97;56.47;;;4.40;99.90;;;;;;2090250;28;20593;-72
2023/05/01 03:45:27;;;;;;;85.30;56.05;;;4.40;99.90;;;;;;2090465;28;20052;-73
2023/05/01 03:46:27;;;;;;;82.70;54.63;;;4.40;99.90;;;;;;2090863;28;20020;-73
2023/05/01 03:47:28;;;;;;;78.22;53.55;;;4.40;99.90;;;;;;2085804;28;20490;-73
2023/05/01 03:48:29;;;;;;;81.03;54.28;;;4.40;99.90;;;;;;2078826;28;20132;-72
2023/05/01 03:49:30;;;;;;;77.72;53.85;;;4.30;99.90;;;;;;2081196;28;20025;-73
2023/05/01 03:50:31;;;;;;;83.32;54.67;;;4.40;99.90;;;;;;2079821;28;20017;-73
2023/05/01 03:51:32;;;;;;;75.38;53.03;;;4.40;99.90;;;;;;2076545;28;20592;-73
2023/05/01 03:52:33;;;;;;;79.47;53.50;;;4.40;99.90;;;;;;2072522;28;20030;-73
2023/05/01 03:53:35;;;;;;;79.63;53.70;;;4.40;99.90;;;;;;2074454;28;20194;-74
2023/05/01 03:54:39;;;;;;;79.05;52.08;;;4.40;99.90;;;;;;2087090;28;20669;-73
2023/05/01 03:55:52;;;;;;;78.97;52.63;;;4.40;99.90;;;;;;2088076;28;20661;-74
2023/05/01 03:56:53;;;;;;;79.22;52.83;;;4.50;99.90;;;;;;2079340;28;20025;-74
2023/05/01 03:57:54;;;;;;;80.63;52.92;;;4.50;99.90;;;;;;2078838;28;20410;-73
2023/05/01 03:58:58;;;;;;;81.88;54.35;;;4.50;99.90;;;;;;2092495;28;20032;-73
2023/05/01 04:00:04;;;;;;;80.85;53.13;;;4.50;99.90;;;;;;2096137;28;20567;-73
2023/05/01 04:01:05;;;;;;;75.32;51.75;;;4.50;99.90;;;;;;2087384;28;20507;-73
2023/05/01 04:02:06;;;;;;;77.78;53.10;;;4.50;99.90;;;;;;2088930;28;20617;-73
2023/05/01 04:03:10;;;;;;;77.43;52.45;;;4.60;99.90;;;;;;2083288;28;20120;-72
2023/05/01 04:04:12;;;;;;;76.50;52.67;;;4.60;99.90;;;;;;2078052;28;20033;-72
2023/05/01 04:05:17;;;;;;;79.95;52.33;;;4.60;99.90;;;;;;2090866;28;20036;-73
2023/05/01 04:06:24;;;;;;;77.45;52.15;;;4.60;99.90;;;;;;2083107;28;20556;-72
2023/05/01 04:07:24;;;;;;;74.38;50.90;;;4.60;99.90;;;;;;2090429;28;20518;-73
2023/05/01 04:08:25;;;;;;;79.63;52.15;;;4.70;99.90;;;;;;2090027;28;20070;-72
2023/05/01 04:09:26;;;;;;;79.32;51.97;;;4.70;99.90;;;;;;2074805;28;20029;-72
2023/05/01 04:10:26;;;;;;;73.78;51.25;;;4.70;99.90;;;;;;2087496;28;20036;-72
2023/05/01 04:11:32;;;;;;;77.93;52.00;;;4.70;99.90;;;;;;2100492;28;20036;-73
2023/05/01 04:12:33;;;;;;;75.68;50.85;;;4.70;99.90;;;;;;2093585;28;20099;-73
2023/05/01 04:13:33;;;;;;;79.20;52.92;;;4.80;99.90;;;;;;2086199;28;20511;-73
2023/05/01 04:14:35;;;;;;;76.22;50.92;;;4.80;99.90;;;;;;2094666;28;20054;-73
2023/05/01 04:15:37;;;;;;;74.75;49.60;;;4.80;99.90;;;;;;2089215;28;20017;-73
2023/05/01 04:16:37;;;;;;;73.80;49.90;;;4.80;99.90;;;;;;2085542;28;20083;-73
2023/05/01 04:17:40;;;;;;;74.13;50.45;;;4.90;99.90;;;;;;2092671;28;20039;-73
2023/05/01 04:18:40;;;;;;;72.78;49.92;;;5.00;99.90;;;;;;2089277;28;20092;-74
2023/05/01 04:19:41;;;;;;;69.38;48.28;;;4.90;99.90;;;;;;2087128;28;20029;-73
2023/05/01 04:20:42;;;;;;;71.10;48.47;;;5.00;99.90;;;;;;2086432;28;20412;-73
2023/05/01 04:21:43;;;;;;;71.35;48.28;;;5.00;99.90;;;;;;2087456;28;20078;-73
2023/05/01 04:22:43;;;;;;;69.50;46.35;;;5.10;99.90;;;;;;2092702;28;20032;-73
2023/05/01 04:23:44;;;;;;;69.53;47.42;;;5.10;99.90;;;;;;2086045;28;20040;-73
2023/05/01 04:24:44;;;;;;;69.53;46.92;;;5.20;99.90;;;;;;2090843;28;20067;-73
2023/05/01 04:25:46;;;;;;;73.35;47.10;;;5.20;99.90;;;;;;2085750;28;20724;-73
2023/05/01 04:26:50;;;;;;;68.50;47.15;;;5.30;99.90;;;;;;2084889;28;20147;-73
2023/05/01 04:27:50;;;;;;;70.60;46.28;;;5.40;99.90;;;;;;2097178;28;20438;-73
2023/05/01 04:28:51;;;;;;;69.30;46.63;;;5.60;99.90;;;;;;2095421;28;20051;-73
2023/05/01 04:29:56;;;;;;;66.80;45.42;;;5.80;99.90;;;;;;2087004;28;20561;-73
2023/05/01 04:30:57;;;;;;;66.25;45.17;;;6.10;99.90;;;;;;2078522;28;20036;-74
2023/05/01 04:31:57;;;;;;;65.93;44.40;;;6.50;99.90;;;;;;2078760;28;20045;-72
2023/05/01 04:32:58;;;;;;;65.40;44.78;;;6.80;99.90;;;;;;2083971;28;20116;-74
2023/05/01 04:33:59;;;;;;;64.13;43.10;;;7.10;99.90;;;;;;2085633;28;20104;-74
2023/05/01 04:35:00;;;;;;;60.08;41.80;;;7.40;99.90;;;;;;2075630;28;20394;-72
2023/05/01 04:36:03;;;;;;;60.67;41.13;;;7.70;99.90;;;;;;2075388;28;20304;-73
2023/05/01 04:37:06;;;;;;;57.33;39.60;;;7.90;99.90;;;;;;2080089;28;20264;-74
2023/05/01 04:38:09;;;;;;;57.10;39.10;;;8.00;99.90;;;;;;2084715;28;20128;-72
2023/05/01 04:39:10;;;;;;;58.97;40.05;;;8.20;99.90;;;;;;2085983;28;20486;-73
2023/05/01 04:40:11;;;;;;;55.88;39.28;;;8.30;99.90;;;;;;2084196;28;20025;-73
2023/05/01 04:41:12;;;;;;;53.42;37.13;;;8.40;99.90;;;;;;2092577;28;20025;-73
2023/05/01 04:42:13;;;;;;;54.88;37.50;;;8.50;99.90;;;;;;2086965;28;20027;-73
2023/05/01 04:43:14;;;;;;;53.33;36.25;;;8.60;99.90;;;;;;2087725;28;20025;-73
2023/05/01 04:44:15;;;;;;;57.25;38.33;;;8.80;99.90;;;;;;2093884;28;20086;-73
2023/05/01 04:45:16;;;;;;;50.03;34.97;;;8.90;99.90;;;;;;2085622;28;20454;-73
2023/05/01 04:46:17;;;;;;;46.03;32.55;;;9.00;99.90;;;;;;2090549;28;20233;-73
2023/05/01 04:47:17;;;;;;;46.53;31.85;;;9.10;99.90;;;;;;2100974;28;20445;-73
2023/05/01 04:48:18;;;;;;;41.58;29.83;;;9.20;99.90;;;;;;2087861;28;20386;-73
2023/05/01 04:49:21;;;;;;;39.83;28.67;;;9.20;99.90;;;;;;2086946;28;20500;-73
2023/05/01 04:50:21;;;;;;;45.90;30.60;;;9.30;99.90;;;;;;2087156;28;20023;-73
2023/05/01 04:51:22;;;;;;;44.08;29.55;;;9.30;99.90;;;;;;2104839;28;20019;-74
2023/05/01 04:52:24;;;;;;;42.33;28.63;;;9.30;99.90;;;;;;2093641;28;20024;-73
2023/05/01 04:53:29;;;;;;;40.20;28.65;;;9.40;99.90;;;;;;2085683;28;20057;-73
2023/05/01 04:54:30;;;;;;;42.22;28.30;;;9.40;99.90;;;;;;2076927;28;20101;-73
2023/05/01 04:55:31;;;;;;;43.25;30.50;;;9.50;99.90;;;;;;2087178;28;20032;-73
2023/05/01 04:56:40;;;;;;;42.10;28.35;;;9.50;99.90;;;;;;2085726;28;20128;-73
2023/05/01 04:57:41;;;;;;;44.08;29.58;;;9.60;99.90;;;;;;2087892;28;20051;-73
2023/05/01 04:58:41;;;;;;;52.63;36.72;;;9.70;99.90;;;;;;2083870;28;20119;-73
2023/05/01 04:59:46;;;;;;;56.30;38.17;;;9.80;99.90;;;;;;2062971;28;20121;-73
2023/05/01 05:00:47;;;;;;;45.42;31.58;;;9.90;99.90;;;;;;2068748;28;20038;-73
2023/05/01 05:01:54;;;;;;;40.13;29.38;;;10.00;99.90;;;;;;2081139;28;20033;-73
2023/05/01 05:02:56;;;;;;;37.38;28.73;;;10.10;99.90;;;;;;2087293;28;20032;-73
2023/05/01 05:03:57;;;;;;;38.17;27.00;;;10.20;99.90;;;;;;2075807;28;20052;-72
2023/05/01 05:04:58;;;;;;;38.25;27.27;;;10.30;99.90;;;;;;2085364;28;20040;-75
2023/05/01 05:05:59;;;;;;;37.08;26.85;;;10.50;99.90;;;;;;2103219;28;20027;-73
2023/05/01 05:07:00;;;;;;;39.05;27.65;;;10.50;99.90;;;;;;2090416;28;20035;-73
2023/05/01 05:08:14;;;;;;;40.90;28.17;;;10.60;99.90;;;;;;2083756;28;20053;-73
2023/05/01 05:09:20;;;;;;;39.03;27.95;;;10.70;99.90;;;;;;2086259;28;20052;-73
2023/05/01 05:10:21;;;;;;;39.38;28.45;;;10.80;99.90;;;;;;2092285;28;20116;-73
2023/05/01 05:11:34;;;;;;;38.97;28.75;;;10.80;99.90;;;;;;2098305;28;20130;-73
2023/05/01 05:12:38;;;;;;;40.22;29.33;;;10.90;99.90;;;;;;2099798;28;20082;-73
2023/05/01 05:13:39;;;;;;;38.92;28.38;;;10.90;99.90;;;;;;2073743;28;20029;-73
2023/05/01 05:14:46;;;;;;;39.58;27.85;;;10.90;99.90;;;;;;2074321;28;20033;-73
2023/05/01 05:15:48;;;;;;;38.25;28.00;;;10.90;99.90;;;;;;2077996;28;20024;-74
2023/05/01 05:16:50;;;;;;;39.80;28.45;;;10.90;99.90;;;;;;2080403;28;20119;-73
2023/05/01 05:17:51;;;;;;;43.33;30.30;;;10.80;99.90;;;;;;2090273;28;20141;-74
2023/05/01 05:18:53;;;;;;;40.15;28.63;;;10.70;99.90;;;;;;2089659;28;20088;-74
2023/05/01 05:19:55;;;;;;;38.78;28.98;;;10.60;99.90;;;;;;2087511;28;20107;-74
2023/05/01 05:20:55;;;;;;;42.80;29.70;;;10.50;99.90;;;;;;2088372;28;20039;-74
2023/05/01 05:21:56;;;;;;;40.33;28.65;;;10.50;99.90;;;;;;2089942;28;20020;-74
2023/05/01 05:22:56;;;;;;;38.22;27.85;;;10.40;99.90;;;;;;2090145;28;20040;-74
2023/05/01 05:23:59;;;;;;;39.78;27.95;;;10.50;99.90;;;;;;2090076;28;20033;-74
2023/05/01 05:25:03;;;;;;;40.75;28.88;;;10.50;99.90;;;;;;2092290;28;20038;-74
2023/05/01 05:26:04;;;;;;;41.40;29.02;;;10.40;99.90;;;;;;2090167;28;20211;-74